createdAt,value
2023-03-06T00:03:33.834Z,4.15
2023-03-06T00:07:45.632Z,4.07
2023-03-06T00:11:57.260Z,4.03
2023-03-06T00:16:09.055Z,3.89
2023-03-06T00:20:21.971Z,3.88
2023-03-06T00:24:33.576Z,3.74
2023-03-06T00:28:45.235Z,3.69
2023-03-06T00:32:56.906Z,3.65
2023-03-06T00:37:08.514Z,3.65
2023-03-06T00:41:21.773Z,3.57
2023-03-06T00:45:33.424Z,3.39
2023-03-06T00:49:46.179Z,3.62
2023-03-06T00:53:57.843Z,3.46
2023-03-06T00:58:09.457Z,3.37
2023-03-06T01:02:21.842Z,3.25
2023-03-06T01:06:33.605Z,3.30
2023-03-06T01:10:48.154Z,3.29
2023-03-06T01:15:01.088Z,3.39
2023-03-06T01:19:14.646Z,3.27
2023-03-06T01:23:26.363Z,3.36
2023-03-06T01:27:40.295Z,3.38
2023-03-06T01:31:55.310Z,3.31
2023-03-06T01:36:11.219Z,3.17
2023-03-06T01:40:22.892Z,3.19
2023-03-06T01:44:34.774Z,3.14
2023-03-06T01:48:48.486Z,3.20
2023-03-06T01:53:00.987Z,3.29
2023-03-06T01:57:18.008Z,3.30
2023-03-06T02:01:32.299Z,3.23
2023-03-06T02:05:44.319Z,3.22
2023-03-06T02:09:56.072Z,3.25
2023-03-06T02:14:12.547Z,3.09
2023-03-06T02:18:24.922Z,3.11
2023-03-06T02:22:46.303Z,3.12
2023-03-06T02:26:59.652Z,3.11
2023-03-06T02:31:22.495Z,3.06
2023-03-06T02:35:38.418Z,3.09
2023-03-06T02:40:02.386Z,3.06
2023-03-06T02:44:14.243Z,3.08
2023-03-06T02:48:27.544Z,3.04
2023-03-06T02:52:39.241Z,2.81
2023-03-06T02:56:50.828Z,2.66
2023-03-06T03:01:02.689Z,2.93
2023-03-06T03:05:15.346Z,2.68
2023-03-06T03:09:29.612Z,2.68
2023-03-06T03:13:41.335Z,2.70
2023-03-06T03:17:57.360Z,2.85
2023-03-06T03:22:09.105Z,2.76
2023-03-06T03:26:22.166Z,2.68
2023-03-06T03:31:08.029Z,2.73
2023-03-06T03:35:20.227Z,2.83
2023-03-06T03:39:32.391Z,2.82
2023-03-06T03:43:44.611Z,2.83
2023-03-06T03:47:56.292Z,2.87
2023-03-06T03:52:09.485Z,2.93
2023-03-06T03:56:23.065Z,2.96
2023-03-06T04:00:42.193Z,2.94
2023-03-06T04:04:58.466Z,2.99
2023-03-06T04:09:10.587Z,3.19
2023-03-06T04:13:23.975Z,3.14
2023-03-06T04:17:36.305Z,3.07
2023-03-06T04:21:51.138Z,3.14
2023-03-06T04:26:04.024Z,3.23
2023-03-06T04:30:16.159Z,3.16
2023-03-06T04:34:27.998Z,3.21
2023-03-06T04:38:39.798Z,3.13
2023-03-06T04:42:51.619Z,3.32
2023-03-06T04:47:03.325Z,3.39
2023-03-06T04:51:15.437Z,3.37
2023-03-06T04:55:27.900Z,3.40
2023-03-06T04:59:39.535Z,3.42
2023-03-06T05:03:51.206Z,3.43
2023-03-06T05:08:02.820Z,3.44
2023-03-06T05:12:14.361Z,3.48
2023-03-06T05:16:26.397Z,3.49
2023-03-06T05:20:38.149Z,3.49
2023-03-06T05:24:49.859Z,3.52
2023-03-06T05:29:01.531Z,3.53
2023-03-06T05:33:13.172Z,3.49
2023-03-06T05:37:24.926Z,3.65
2023-03-06T05:41:36.708Z,3.55
2023-03-06T05:45:50.480Z,3.55
2023-03-06T05:50:02.291Z,3.56
2023-03-06T05:54:13.965Z,3.50
2023-03-06T05:58:26.790Z,3.73
2023-03-06T06:02:38.490Z,3.68
2023-03-06T06:07:08.368Z,3.77
2023-03-06T06:11:20.837Z,3.73
2023-03-06T06:15:32.569Z,3.72
2023-03-06T06:19:44.353Z,3.61
2023-03-06T06:23:55.973Z,3.59
2023-03-06T06:28:07.648Z,3.68
2023-03-06T06:32:19.477Z,3.66
2023-03-06T06:36:31.222Z,3.79
2023-03-06T06:40:43.248Z,3.59
2023-03-06T06:44:54.780Z,3.74
2023-03-06T06:49:06.579Z,3.66
2023-03-06T06:53:18.204Z,3.71
2023-03-06T06:57:30.128Z,3.85
2023-03-06T07:01:41.790Z,3.84
2023-03-06T07:05:56.622Z,3.86
2023-03-06T07:10:14.094Z,3.91
2023-03-06T07:14:26.048Z,3.93
2023-03-06T07:18:37.741Z,3.98
2023-03-06T07:22:51.674Z,4.17
2023-03-06T07:27:03.748Z,4.06
2023-03-06T07:31:15.600Z,4.29
2023-03-06T07:35:27.598Z,4.34
2023-03-06T07:39:39.462Z,4.44
2023-03-06T07:43:51.198Z,4.35
2023-03-06T07:48:04.978Z,4.44
2023-03-06T07:52:17.453Z,4.45
2023-03-06T07:56:29.250Z,4.71
2023-03-06T08:00:40.991Z,4.82
2023-03-06T08:04:54.003Z,4.98
2023-03-06T08:09:05.656Z,4.85
2023-03-06T08:13:22.424Z,5.34
2023-03-06T08:17:34.085Z,5.60
2023-03-06T08:21:45.823Z,6.22
2023-03-06T08:25:59.987Z,7.60
2023-03-06T08:30:12.544Z,8.01
2023-03-06T08:34:26.910Z,8.45
2023-03-06T08:38:40.312Z,8.58
2023-03-06T08:42:52.028Z,8.36
2023-03-06T08:47:04.276Z,8.30
2023-03-06T08:51:17.612Z,8.89
2023-03-06T08:55:30.207Z,8.76
2023-03-06T08:59:42.411Z,8.64
2023-03-06T09:03:56.137Z,8.62
2023-03-06T09:08:10.779Z,8.69
2023-03-06T09:12:22.700Z,8.45
2023-03-06T09:16:34.546Z,8.98
2023-03-06T09:20:46.272Z,9.80
2023-03-06T09:24:58.345Z,10.82
2023-03-06T09:29:10.123Z,11.87
2023-03-06T09:33:25.445Z,12.80
2023-03-06T09:37:37.289Z,13.13
2023-03-06T09:41:50.624Z,13.25
2023-03-06T09:46:31.654Z,13.45
2023-03-06T09:50:59.785Z,13.62
2023-03-06T09:55:25.131Z,13.86
2023-03-06T09:59:50.795Z,14.06
2023-03-06T10:04:44.958Z,14.47
2023-03-06T10:08:59.649Z,15.09
2023-03-06T10:13:26.569Z,15.60
2023-03-06T10:17:43.754Z,14.96
2023-03-06T10:22:29.446Z,14.71
2023-03-06T10:27:00.545Z,14.18
2023-03-06T10:31:23.999Z,13.56
2023-03-06T10:35:57.034Z,13.42
2023-03-06T10:40:28.124Z,12.82
2023-03-06T10:44:39.865Z,13.22
2023-03-06T10:48:59.009Z,13.89
2023-03-06T10:53:23.772Z,14.12
2023-03-06T10:57:35.476Z,13.91
2023-03-06T11:01:58.703Z,14.41
2023-03-06T11:06:30.283Z,14.07
2023-03-06T11:11:06.000Z,13.81
2023-03-06T11:15:22.780Z,13.78
2023-03-06T11:19:34.625Z,13.50
2023-03-06T11:23:47.460Z,13.34
2023-03-06T11:28:26.047Z,13.69
2023-03-06T11:32:52.431Z,14.09
2023-03-06T11:37:33.711Z,14.03
2023-03-06T11:42:18.923Z,14.04
2023-03-06T11:46:41.615Z,14.51
2023-03-06T11:50:59.421Z,14.54
2023-03-06T11:55:21.497Z,14.80
2023-03-06T12:00:00.607Z,14.95
2023-03-06T12:04:34.052Z,14.68
2023-03-06T12:08:48.596Z,14.24
2023-03-06T12:13:41.759Z,14.34
2023-03-06T12:17:59.932Z,14.62
2023-03-06T12:22:40.951Z,14.55
2023-03-06T12:27:30.310Z,14.59
2023-03-06T12:32:00.339Z,14.64
2023-03-06T12:36:27.311Z,14.85
2023-03-06T12:41:11.335Z,14.63
2023-03-06T12:45:25.865Z,14.22
2023-03-06T12:49:43.281Z,13.81
2023-03-06T12:53:55.744Z,13.73
2023-03-06T12:58:34.494Z,13.32
2023-03-06T13:03:24.614Z,13.16
2023-03-06T13:07:55.775Z,12.99
2023-03-06T13:12:32.395Z,12.73
2023-03-06T13:16:44.277Z,12.76
2023-03-06T13:20:56.639Z,12.43
2023-03-06T13:25:17.602Z,12.68
2023-03-06T13:29:38.361Z,12.61
2023-03-06T13:34:01.136Z,12.55
2023-03-06T13:38:31.475Z,12.60
2023-03-06T13:42:43.217Z,12.65
2023-03-06T13:47:05.648Z,12.39
2023-03-06T13:51:27.626Z,12.22
2023-03-06T13:56:01.336Z,12.12
2023-03-06T14:00:46.764Z,11.93
2023-03-06T14:05:01.105Z,11.80
2023-03-06T14:09:42.284Z,11.80
2023-03-06T14:13:57.509Z,11.54
2023-03-06T14:18:23.763Z,11.59
2023-03-06T14:22:35.576Z,11.57
2023-03-06T14:26:50.108Z,11.55
2023-03-06T14:31:04.330Z,11.51
2023-03-06T14:35:31.594Z,11.46
2023-03-06T14:39:44.803Z,11.44
2023-03-06T14:44:22.527Z,11.42
2023-03-06T14:48:45.677Z,11.11
2023-03-06T14:57:40.586Z,10.82
2023-03-06T15:01:58.918Z,10.35
2023-03-06T15:06:15.872Z,10.10
2023-03-06T15:10:32.853Z,9.81
2023-03-06T15:14:57.090Z,9.59
2023-03-06T15:19:18.683Z,9.40
2023-03-06T15:23:42.238Z,9.48
2023-03-06T15:28:01.287Z,9.53
2023-03-06T15:32:31.400Z,9.70
2023-03-06T15:36:54.992Z,9.73
2023-03-06T15:41:19.629Z,9.69
2023-03-06T15:45:32.115Z,9.66
2023-03-06T15:49:43.900Z,9.62
2023-03-06T15:54:09.808Z,9.60
2023-03-06T15:58:33.279Z,9.47
2023-03-06T16:02:46.608Z,9.13
2023-03-06T16:06:58.344Z,8.71
2023-03-06T16:11:18.255Z,8.51
2023-03-06T16:15:39.579Z,8.24
2023-03-06T16:19:51.181Z,8.15
2023-03-06T16:24:03.221Z,8.16
2023-03-06T16:28:16.512Z,8.12
2023-03-06T16:32:28.857Z,8.31
2023-03-06T16:36:41.590Z,8.13
2023-03-06T16:40:53.259Z,8.29
2023-03-06T16:45:05.281Z,8.27
2023-03-06T16:49:19.157Z,7.92
2023-03-06T16:53:30.810Z,8.14
2023-03-06T16:57:42.457Z,8.09
2023-03-06T17:01:54.156Z,8.00
2023-03-06T17:06:20.489Z,7.74
2023-03-06T17:10:32.633Z,7.56
2023-03-06T17:14:44.253Z,7.43
2023-03-06T17:18:58.111Z,7.26
2023-03-06T17:23:09.845Z,7.15
2023-03-06T17:27:24.565Z,7.13
2023-03-06T17:31:40.584Z,7.10
2023-03-06T17:35:58.473Z,7.09
2023-03-06T17:40:10.562Z,6.99
2023-03-06T17:44:22.327Z,7.07
2023-03-06T17:48:34.612Z,7.07
2023-03-06T17:52:46.378Z,7.13
2023-03-06T17:57:03.487Z,7.18
2023-03-06T18:01:19.024Z,6.93
2023-03-06T18:05:32.380Z,6.99
2023-03-06T18:09:44.223Z,6.87
2023-03-06T18:13:55.945Z,6.83
2023-03-06T18:18:08.682Z,6.84
2023-03-06T18:22:20.423Z,6.69
2023-03-06T18:26:32.228Z,6.74
2023-03-06T18:30:43.930Z,6.60
2023-03-06T18:34:55.870Z,6.59
2023-03-06T18:39:09.649Z,6.65
2023-03-06T18:43:21.338Z,6.51
2023-03-06T18:47:33.705Z,6.56
2023-03-06T18:51:46.532Z,6.50
2023-03-06T18:55:58.162Z,6.57
2023-03-06T19:00:10.407Z,6.63
2023-03-06T19:04:22.054Z,6.67
2023-03-06T19:08:34.719Z,6.69
2023-03-06T19:12:46.361Z,6.43
2023-03-06T19:16:57.980Z,6.44
2023-03-06T19:21:12.030Z,6.43
2023-03-06T19:25:23.669Z,6.48
2023-03-06T19:29:35.412Z,6.48
2023-03-06T19:33:48.886Z,6.46
2023-03-06T19:38:00.526Z,6.28
2023-03-06T19:42:13.887Z,6.09
2023-03-06T19:46:34.958Z,6.20
2023-03-06T19:50:46.979Z,6.17
2023-03-06T19:54:58.727Z,6.11
2023-03-06T19:59:10.559Z,5.99
2023-03-06T20:03:22.228Z,5.94
2023-03-06T20:07:34.066Z,5.84
2023-03-06T20:11:45.793Z,5.83
2023-03-06T20:15:58.188Z,5.85
2023-03-06T20:20:10.950Z,6.07
2023-03-06T20:24:22.960Z,5.81
2023-03-06T20:28:35.454Z,5.85
2023-03-06T20:32:47.258Z,5.88
2023-03-06T20:36:59.137Z,5.87
2023-03-06T20:41:19.120Z,5.84
2023-03-06T20:45:36.160Z,5.86
2023-03-06T20:49:47.791Z,5.79
2023-03-06T20:54:01.959Z,5.77
2023-03-06T20:58:13.741Z,5.53
2023-03-06T21:02:25.547Z,5.72
2023-03-06T21:06:37.869Z,5.54
2023-03-06T21:10:49.840Z,5.70
2023-03-06T21:15:01.549Z,5.64
2023-03-06T21:19:13.291Z,5.72
2023-03-06T21:23:25.209Z,5.77
2023-03-06T21:27:36.978Z,5.85
2023-03-06T21:31:48.629Z,5.76
2023-03-06T21:36:00.374Z,5.90
2023-03-06T21:40:17.133Z,5.88
2023-03-06T21:44:28.787Z,5.83
2023-03-06T21:48:42.129Z,5.74
2023-03-06T21:52:56.220Z,5.82
2023-03-06T21:57:07.942Z,5.98
2023-03-06T22:01:24.029Z,5.96
2023-03-06T22:05:35.795Z,6.00
2023-03-06T22:09:47.545Z,6.05
2023-03-06T22:13:59.222Z,6.03
2023-03-06T22:18:15.787Z,6.04
2023-03-06T22:22:27.660Z,6.02
2023-03-06T22:26:39.301Z,6.00
2023-03-06T22:30:50.935Z,6.10
2023-03-06T22:35:02.614Z,6.03
2023-03-06T22:39:14.359Z,6.16
2023-03-06T22:43:26.117Z,6.17
2023-03-06T22:47:38.207Z,6.10
2023-03-06T22:51:49.886Z,6.16
2023-03-06T22:56:03.563Z,6.23
2023-03-06T23:00:15.451Z,6.05
2023-03-06T23:04:27.284Z,6.08
2023-03-06T23:08:39.190Z,6.07
2023-03-06T23:12:50.925Z,5.89
2023-03-06T23:17:21.650Z,6.04
2023-03-06T23:21:51.873Z,6.00
2023-03-06T23:26:25.765Z,6.01
2023-03-06T23:30:42.093Z,5.96
2023-03-06T23:34:56.801Z,5.88
2023-03-06T23:39:09.184Z,5.82
2023-03-06T23:43:21.088Z,5.98
2023-03-06T23:47:34.116Z,6.08
2023-03-06T23:51:45.847Z,6.08
2023-03-06T23:55:57.675Z,6.05
